sensor_id;sensor_type;location;lat;lon;timestamp;pressure;altitude;pressure_sealevel;temperature;humidity
58991;BME280;44781;53.444;14.476;2023-12-07T00:02:07;101714.92;;;0.33;74.67
58991;BME280;44781;53.444;14.476;2023-12-07T00:04:36;101718.42;;;0.33;74.60
58991;BME280;44781;53.444;14.476;2023-12-07T00:07:03;101719.32;;;0.32;74.72
58991;BME280;44781;53.444;14.476;2023-12-07T00:09:32;101723.13;;;0.32;74.75
58991;BME280;44781;53.444;14.476;2023-12-07T00:12:09;101720.33;;;0.33;74.77
58991;BME280;44781;53.444;14.476;2023-12-07T00:14:39;101726.37;;;0.35;74.80
58991;BME280;44781;53.444;14.476;2023-12-07T00:17:07;101726.68;;;0.37;74.76
58991;BME280;44781;53.444;14.476;2023-12-07T00:19:37;101729.61;;;0.39;74.78
58991;BME280;44781;53.444;14.476;2023-12-07T00:22:05;101731.15;;;0.41;74.84
58991;BME280;44781;53.444;14.476;2023-12-07T00:24:34;101730.98;;;0.41;74.74
58991;BME280;44781;53.444;14.476;2023-12-07T00:27:11;101731.34;;;0.40;74.69
58991;BME280;44781;53.444;14.476;2023-12-07T00:29:53;101732.23;;;0.38;74.60
58991;BME280;44781;53.444;14.476;2023-12-07T00:32:22;101731.03;;;0.37;74.80
58991;BME280;44781;53.444;14.476;2023-12-07T00:34:52;101729.12;;;0.37;74.58
58991;BME280;44781;53.444;14.476;2023-12-07T00:37:24;101729.11;;;0.37;74.60
58991;BME280;44781;53.444;14.476;2023-12-07T00:39:56;101733.62;;;0.38;74.65
58991;BME280;44781;53.444;14.476;2023-12-07T00:42:45;101738.63;;;0.41;74.68
58991;BME280;44781;53.444;14.476;2023-12-07T00:45:23;101738.92;;;0.42;74.97
58991;BME280;44781;53.444;14.476;2023-12-07T00:47:52;101742.73;;;0.44;74.87
58991;BME280;44781;53.444;14.476;2023-12-07T00:50:19;101745.17;;;0.44;74.94
58991;BME280;44781;53.444;14.476;2023-12-07T00:52:46;101746.92;;;0.43;74.79
58991;BME280;44781;53.444;14.476;2023-12-07T00:55:13;101744.36;;;0.41;74.70
58991;BME280;44781;53.444;14.476;2023-12-07T00:57:40;101746.30;;;0.39;74.72
58991;BME280;44781;53.444;14.476;2023-12-07T01:00:07;101750.66;;;0.38;74.60
58991;BME280;44781;53.444;14.476;2023-12-07T01:02:34;101753.97;;;0.38;74.74
58991;BME280;44781;53.444;14.476;2023-12-07T01:05:01;101757.95;;;0.39;74.70
58991;BME280;44781;53.444;14.476;2023-12-07T01:07:28;101755.85;;;0.39;74.86
58991;BME280;44781;53.444;14.476;2023-12-07T01:09:55;101753.91;;;0.41;74.80
58991;BME280;44781;53.444;14.476;2023-12-07T01:12:22;101758.93;;;0.42;74.91
58991;BME280;44781;53.444;14.476;2023-12-07T01:14:49;101758.05;;;0.43;74.87
58991;BME280;44781;53.444;14.476;2023-12-07T01:17:16;101760.67;;;0.42;74.84
58991;BME280;44781;53.444;14.476;2023-12-07T01:19:43;101762.27;;;0.42;74.96
58991;BME280;44781;53.444;14.476;2023-12-07T01:22:10;101767.66;;;0.40;74.76
58991;BME280;44781;53.444;14.476;2023-12-07T01:24:37;101769.77;;;0.38;74.91
58991;BME280;44781;53.444;14.476;2023-12-07T01:27:04;101770.83;;;0.37;74.95
58991;BME280;44781;53.444;14.476;2023-12-07T01:29:31;101770.31;;;0.37;74.93
58991;BME280;44781;53.444;14.476;2023-12-07T01:31:58;101772.22;;;0.38;75.05
58991;BME280;44781;53.444;14.476;2023-12-07T01:34:25;101770.61;;;0.41;75.08
58991;BME280;44781;53.444;14.476;2023-12-07T01:36:51;101770.74;;;0.43;75.12
58991;BME280;44781;53.444;14.476;2023-12-07T01:39:21;101773.84;;;0.45;75.11
58991;BME280;44781;53.444;14.476;2023-12-07T01:41:51;101772.50;;;0.41;75.12
58991;BME280;44781;53.444;14.476;2023-12-07T01:44:18;101776.23;;;0.46;75.17
58991;BME280;44781;53.444;14.476;2023-12-07T01:46:45;101777.29;;;0.46;75.05
58991;BME280;44781;53.444;14.476;2023-12-07T01:49:15;101777.16;;;0.45;75.16
58991;BME280;44781;53.444;14.476;2023-12-07T01:51:42;101776.99;;;0.43;75.10
58991;BME280;44781;53.444;14.476;2023-12-07T01:54:10;101779.96;;;0.42;75.17
58991;BME280;44781;53.444;14.476;2023-12-07T01:56:37;101782.59;;;0.42;75.16
58991;BME280;44781;53.444;14.476;2023-12-07T01:59:04;101789.17;;;0.43;75.08
58991;BME280;44781;53.444;14.476;2023-12-07T02:01:31;101787.75;;;0.44;75.33
58991;BME280;44781;53.444;14.476;2023-12-07T02:03:58;101787.89;;;0.46;75.30
58991;BME280;44781;53.444;14.476;2023-12-07T02:06:25;101786.30;;;0.49;75.36
58991;BME280;44781;53.444;14.476;2023-12-07T02:08:53;101788.52;;;0.50;75.41
58991;BME280;44781;53.444;14.476;2023-12-07T02:11:20;101791.48;;;0.51;75.36
58991;BME280;44781;53.444;14.476;2023-12-07T02:13:47;101797.05;;;0.50;75.37
58991;BME280;44781;53.444;14.476;2023-12-07T02:16:23;101805.05;;;0.50;75.35
58991;BME280;44781;53.444;14.476;2023-12-07T02:21:41;101800.39;;;0.48;75.52
58991;BME280;44781;53.444;14.476;2023-12-07T02:24:18;101799.83;;;0.50;75.55
58991;BME280;44781;53.444;14.476;2023-12-07T02:26:53;101797.52;;;0.52;75.51
58991;BME280;44781;53.444;14.476;2023-12-07T02:29:20;101801.98;;;0.56;75.69
58991;BME280;44781;53.444;14.476;2023-12-07T02:31:47;101802.09;;;0.60;75.72
58991;BME280;44781;53.444;14.476;2023-12-07T02:34:14;101805.35;;;0.62;75.64
58991;BME280;44781;53.444;14.476;2023-12-07T02:36:43;101804.98;;;0.64;75.65
58991;BME280;44781;53.444;14.476;2023-12-07T02:39:15;101805.33;;;0.63;75.55
58991;BME280;44781;53.444;14.476;2023-12-07T02:41:43;101800.99;;;0.63;75.68
58991;BME280;44781;53.444;14.476;2023-12-07T02:44:12;101797.02;;;0.61;75.54
58991;BME280;44781;53.444;14.476;2023-12-07T02:46:39;101794.61;;;0.60;75.61
58991;BME280;44781;53.444;14.476;2023-12-07T02:49:06;101796.36;;;0.59;75.57
58991;BME280;44781;53.444;14.476;2023-12-07T02:51:33;101794.97;;;0.59;75.58
58991;BME280;44781;53.444;14.476;2023-12-07T02:54:00;101798.42;;;0.61;75.84
58991;BME280;44781;53.444;14.476;2023-12-07T02:56:27;101801.52;;;0.63;75.87
58991;BME280;44781;53.444;14.476;2023-12-07T02:58:53;101809.48;;;0.65;75.88
58991;BME280;44781;53.444;14.476;2023-12-07T03:01:20;101814.51;;;0.66;75.87
58991;BME280;44781;53.444;14.476;2023-12-07T03:03:48;101821.11;;;0.66;75.81
58991;BME280;44781;53.444;14.476;2023-12-07T03:06:15;101824.26;;;0.65;75.65
58991;BME280;44781;53.444;14.476;2023-12-07T03:08:43;101829.86;;;0.63;75.65
58991;BME280;44781;53.444;14.476;2023-12-07T03:11:10;101830.41;;;0.61;75.74
58991;BME280;44781;53.444;14.476;2023-12-07T03:13:37;101830.08;;;0.60;75.74
58991;BME280;44781;53.444;14.476;2023-12-07T03:16:08;101836.35;;;0.60;75.90
58991;BME280;44781;53.444;14.476;2023-12-07T03:18:36;101835.61;;;0.63;76.11
58991;BME280;44781;53.444;14.476;2023-12-07T03:21:03;101840.44;;;0.65;76.31
58991;BME280;44781;53.444;14.476;2023-12-07T03:23:30;101844.39;;;0.67;76.28
58991;BME280;44781;53.444;14.476;2023-12-07T03:25:57;101845.05;;;0.69;76.26
58991;BME280;44781;53.444;14.476;2023-12-07T03:28:24;101845.59;;;0.69;76.41
58991;BME280;44781;53.444;14.476;2023-12-07T03:30:51;101843.88;;;0.67;76.25
58991;BME280;44781;53.444;14.476;2023-12-07T03:33:18;101846.70;;;0.65;76.27
58991;BME280;44781;53.444;14.476;2023-12-07T03:35:45;101849.66;;;0.64;76.29
58991;BME280;44781;53.444;14.476;2023-12-07T03:38:15;101851.23;;;0.63;76.31
58991;BME280;44781;53.444;14.476;2023-12-07T03:40:42;101852.09;;;0.65;76.36
58991;BME280;44781;53.444;14.476;2023-12-07T03:43:09;101855.88;;;0.67;76.43
58991;BME280;44781;53.444;14.476;2023-12-07T03:45:36;101860.55;;;0.69;76.61
58991;BME280;44781;53.444;14.476;2023-12-07T03:48:03;101858.96;;;0.70;76.67
58991;BME280;44781;53.444;14.476;2023-12-07T03:50:30;101853.55;;;0.70;76.57
58991;BME280;44781;53.444;14.476;2023-12-07T03:52:57;101854.77;;;0.70;76.76
58991;BME280;44781;53.444;14.476;2023-12-07T03:55:24;101842.41;;;0.61;76.70
58991;BME280;44781;53.444;14.476;2023-12-07T03:57:51;101856.73;;;0.68;76.81
58991;BME280;44781;53.444;14.476;2023-12-07T04:00:18;101850.65;;;0.68;76.65
58991;BME280;44781;53.444;14.476;2023-12-07T04:02:45;101848.55;;;0.68;76.96
58991;BME280;44781;53.444;14.476;2023-12-07T04:05:12;101849.56;;;0.70;76.95
58991;BME280;44781;53.444;14.476;2023-12-07T04:07:39;101852.30;;;0.72;77.04
58991;BME280;44781;53.444;14.476;2023-12-07T04:10:06;101857.31;;;0.74;77.09
58991;BME280;44781;53.444;14.476;2023-12-07T04:12:34;101857.83;;;0.74;77.00
58991;BME280;44781;53.444;14.476;2023-12-07T04:15:01;101855.05;;;0.74;77.19
58991;BME280;44781;53.444;14.476;2023-12-07T04:17:28;101854.38;;;0.74;77.12
58991;BME280;44781;53.444;14.476;2023-12-07T04:19:55;101854.55;;;0.73;76.99
58991;BME280;44781;53.444;14.476;2023-12-07T04:22:23;101859.95;;;0.73;77.02
58991;BME280;44781;53.444;14.476;2023-12-07T04:24:50;101859.59;;;0.73;77.19
58991;BME280;44781;53.444;14.476;2023-12-07T04:27:16;101861.14;;;0.74;77.15
58991;BME280;44781;53.444;14.476;2023-12-07T04:29:43;101864.45;;;0.74;77.24
58991;BME280;44781;53.444;14.476;2023-12-07T04:32:10;101864.09;;;0.75;77.37
58991;BME280;44781;53.444;14.476;2023-12-07T04:34:38;101869.30;;;0.76;77.32
58991;BME280;44781;53.444;14.476;2023-12-07T04:37:14;101871.89;;;0.77;77.40
58991;BME280;44781;53.444;14.476;2023-12-07T04:39:47;101872.95;;;0.76;77.38
58991;BME280;44781;53.444;14.476;2023-12-07T04:42:15;101880.27;;;0.74;77.32
58991;BME280;44781;53.444;14.476;2023-12-07T04:44:42;101881.34;;;0.73;77.33
58991;BME280;44781;53.444;14.476;2023-12-07T04:47:09;101885.00;;;0.73;77.45
58991;BME280;44781;53.444;14.476;2023-12-07T04:49:37;101883.25;;;0.73;77.57
58991;BME280;44781;53.444;14.476;2023-12-07T04:52:04;101884.79;;;0.74;77.58
58991;BME280;44781;53.444;14.476;2023-12-07T04:54:31;101884.44;;;0.75;77.60
58991;BME280;44781;53.444;14.476;2023-12-07T04:56:58;101884.26;;;0.76;77.59
58991;BME280;44781;53.444;14.476;2023-12-07T04:59:25;101888.95;;;0.76;77.55
58991;BME280;44781;53.444;14.476;2023-12-07T05:01:53;101891.04;;;0.76;77.63
58991;BME280;44781;53.444;14.476;2023-12-07T05:04:20;101895.91;;;0.75;77.66
58991;BME280;44781;53.444;14.476;2023-12-07T05:06:48;101901.11;;;0.76;77.80
58991;BME280;44781;53.444;14.476;2023-12-07T05:09:15;101901.13;;;0.76;77.73
58991;BME280;44781;53.444;14.476;2023-12-07T05:11:42;101899.52;;;0.78;77.91
58991;BME280;44781;53.444;14.476;2023-12-07T05:14:11;101905.24;;;0.78;77.94
58991;BME280;44781;53.444;14.476;2023-12-07T05:16:40;101903.14;;;0.80;78.01
58991;BME280;44781;53.444;14.476;2023-12-07T05:19:07;101904.55;;;0.80;78.08
58991;BME280;44781;53.444;14.476;2023-12-07T05:21:34;101901.95;;;0.78;78.07
58991;BME280;44781;53.444;14.476;2023-12-07T05:24:01;101898.48;;;0.78;78.03
58991;BME280;44781;53.444;14.476;2023-12-07T05:26:29;101898.66;;;0.77;78.08
58991;BME280;44781;53.444;14.476;2023-12-07T05:28:59;101900.38;;;0.79;78.32
58991;BME280;44781;53.444;14.476;2023-12-07T05:31:27;101905.59;;;0.80;78.33
58991;BME280;44781;53.444;14.476;2023-12-07T05:33:55;101909.88;;;0.83;78.41
58991;BME280;44781;53.444;14.476;2023-12-07T05:36:22;101912.10;;;0.85;78.44
58991;BME280;44781;53.444;14.476;2023-12-07T05:38:49;101918.16;;;0.88;78.54
58991;BME280;44781;53.444;14.476;2023-12-07T05:41:16;101920.73;;;0.89;78.45
58991;BME280;44781;53.444;14.476;2023-12-07T05:43:44;101921.57;;;0.90;78.52
58991;BME280;44781;53.444;14.476;2023-12-07T05:46:11;101916.89;;;0.89;78.50
58991;BME280;44781;53.444;14.476;2023-12-07T05:48:39;101919.53;;;0.88;78.36
58991;BME280;44781;53.444;14.476;2023-12-07T05:51:12;101921.61;;;0.88;78.51
58991;BME280;44781;53.444;14.476;2023-12-07T05:53:40;101921.94;;;0.90;78.70
58991;BME280;44781;53.444;14.476;2023-12-07T05:56:08;101915.63;;;0.92;78.61
58991;BME280;44781;53.444;14.476;2023-12-07T05:58:35;101913.85;;;0.95;78.55
58991;BME280;44781;53.444;14.476;2023-12-07T06:01:02;101912.06;;;0.97;78.64
58991;BME280;44781;53.444;14.476;2023-12-07T06:03:30;101916.02;;;1.00;78.76
58991;BME280;44781;53.444;14.476;2023-12-07T06:05:57;101918.41;;;1.02;78.69
58991;BME280;44781;53.444;14.476;2023-12-07T06:08:25;101920.48;;;1.03;78.69
58991;BME280;44781;53.444;14.476;2023-12-07T06:10:52;101919.95;;;1.03;78.52
58991;BME280;44781;53.444;14.476;2023-12-07T06:13:20;101920.52;;;1.02;78.37
58991;BME280;44781;53.444;14.476;2023-12-07T06:15:47;101920.36;;;1.01;78.49
58991;BME280;44781;53.444;14.476;2023-12-07T06:18:15;101918.95;;;1.01;78.47
58991;BME280;44781;53.444;14.476;2023-12-07T06:20:42;101921.91;;;1.01;78.44
58991;BME280;44781;53.444;14.476;2023-12-07T06:23:10;101926.77;;;1.02;78.51
58991;BME280;44781;53.444;14.476;2023-12-07T06:25:39;101929.18;;;1.03;78.45
58991;BME280;44781;53.444;14.476;2023-12-07T06:28:07;101922.38;;;1.04;78.64
58991;BME280;44781;53.444;14.476;2023-12-07T06:30:34;101926.91;;;1.05;78.50
58991;BME280;44781;53.444;14.476;2023-12-07T06:33:01;101923.61;;;1.03;78.54
58991;BME280;44781;53.444;14.476;2023-12-07T06:35:29;101928.31;;;1.03;78.67
58991;BME280;44781;53.444;14.476;2023-12-07T06:37:57;101931.81;;;1.02;78.53
58991;BME280;44781;53.444;14.476;2023-12-07T06:40:27;101938.08;;;1.03;78.62
58991;BME280;44781;53.444;14.476;2023-12-07T06:42:54;101940.32;;;1.04;78.62
58991;BME280;44781;53.444;14.476;2023-12-07T06:45:21;101942.89;;;1.06;78.68
58991;BME280;44781;53.444;14.476;2023-12-07T06:47:48;101929.73;;;1.02;78.77
58991;BME280;44781;53.444;14.476;2023-12-07T06:50:15;101939.36;;;1.09;78.70
58991;BME280;44781;53.444;14.476;2023-12-07T06:52:43;101943.34;;;1.10;78.64
58991;BME280;44781;53.444;14.476;2023-12-07T06:55:13;101948.23;;;1.09;78.59
58991;BME280;44781;53.444;14.476;2023-12-07T06:57:41;101950.17;;;1.07;78.58
58991;BME280;44781;53.444;14.476;2023-12-07T07:00:08;101948.14;;;1.05;78.76
58991;BME280;44781;53.444;14.476;2023-12-07T07:02:39;101951.11;;;1.03;78.72
58991;BME280;44781;53.444;14.476;2023-12-07T07:05:08;101949.05;;;1.02;78.78
58991;BME280;44781;53.444;14.476;2023-12-07T07:07:38;101944.67;;;1.03;78.87
58991;BME280;44781;53.444;14.476;2023-12-07T07:10:06;101949.17;;;1.05;79.07
58991;BME280;44781;53.444;14.476;2023-12-07T07:12:33;101949.85;;;1.06;79.00
58991;BME280;44781;53.444;14.476;2023-12-07T07:15:06;101955.73;;;1.08;78.95
58991;BME280;44781;53.444;14.476;2023-12-07T07:18:03;101964.08;;;1.08;79.03
58991;BME280;44781;53.444;14.476;2023-12-07T07:20:30;101965.29;;;1.09;79.03
58991;BME280;44781;53.444;14.476;2023-12-07T07:22:57;101965.80;;;1.09;79.00
58991;BME280;44781;53.444;14.476;2023-12-07T07:25:25;101967.88;;;1.10;79.10
58991;BME280;44781;53.444;14.476;2023-12-07T07:27:52;101973.96;;;1.11;79.12
58991;BME280;44781;53.444;14.476;2023-12-07T07:30:21;101974.12;;;1.11;78.98
58991;BME280;44781;53.444;14.476;2023-12-07T07:32:48;101967.66;;;1.12;79.03
58991;BME280;44781;53.444;14.476;2023-12-07T07:35:15;101971.30;;;1.13;79.14
58991;BME280;44781;53.444;14.476;2023-12-07T07:37:43;101970.59;;;1.14;79.20
58991;BME280;44781;53.444;14.476;2023-12-07T07:40:10;101968.30;;;1.16;79.27
58991;BME280;44781;53.444;14.476;2023-12-07T07:42:38;101961.33;;;1.16;79.22
58991;BME280;44781;53.444;14.476;2023-12-07T07:45:10;101962.38;;;1.17;79.25
58991;BME280;44781;53.444;14.476;2023-12-07T07:47:37;101958.89;;;1.17;79.29
58991;BME280;44781;53.444;14.476;2023-12-07T07:50:06;101958.67;;;1.18;79.37
58991;BME280;44781;53.444;14.476;2023-12-07T07:52:34;101958.30;;;1.21;79.40
58991;BME280;44781;53.444;14.476;2023-12-07T07:55:05;101958.08;;;1.23;79.43
58991;BME280;44781;53.444;14.476;2023-12-07T07:57:33;101963.23;;;1.26;79.51
58991;BME280;44781;53.444;14.476;2023-12-07T08:00:00;101963.16;;;1.30;79.50
58991;BME280;44781;53.444;14.476;2023-12-07T08:02:27;101962.26;;;1.33;79.37
58991;BME280;44781;53.444;14.476;2023-12-07T08:04:54;101965.20;;;1.34;79.34
58991;BME280;44781;53.444;14.476;2023-12-07T08:07:21;101967.10;;;1.35;79.30
58991;BME280;44781;53.444;14.476;2023-12-07T08:09:48;101971.08;;;1.35;79.17
58991;BME280;44781;53.444;14.476;2023-12-07T08:12:15;101970.73;;;1.36;79.16
58991;BME280;44781;53.444;14.476;2023-12-07T08:14:42;101971.22;;;1.37;79.26
58991;BME280;44781;53.444;14.476;2023-12-07T08:17:11;101967.16;;;1.40;79.28
58991;BME280;44781;53.444;14.476;2023-12-07T08:19:38;101973.03;;;1.43;79.24
58991;BME280;44781;53.444;14.476;2023-12-07T08:22:05;101977.48;;;1.47;79.16
58991;BME280;44781;53.444;14.476;2023-12-07T08:24:32;101985.96;;;1.51;79.17
58991;BME280;44781;53.444;14.476;2023-12-07T08:27:00;101985.90;;;1.53;79.09
58991;BME280;44781;53.444;14.476;2023-12-07T08:29:27;101982.04;;;1.55;79.11
58991;BME280;44781;53.444;14.476;2023-12-07T08:31:54;101982.90;;;1.55;78.86
58991;BME280;44781;53.444;14.476;2023-12-07T08:34:21;101989.16;;;1.56;78.87
58991;BME280;44781;53.444;14.476;2023-12-07T08:36:48;101991.92;;;1.57;78.67
58991;BME280;44781;53.444;14.476;2023-12-07T08:39:14;101986.52;;;1.58;78.67
58991;BME280;44781;53.444;14.476;2023-12-07T08:41:41;101983.50;;;1.61;78.85
58991;BME280;44781;53.444;14.476;2023-12-07T08:44:08;101984.66;;;1.64;78.65
58991;BME280;44781;53.444;14.476;2023-12-07T08:46:36;101979.74;;;1.66;78.75
58991;BME280;44781;53.444;14.476;2023-12-07T08:49:03;101983.16;;;1.69;78.74
58991;BME280;44781;53.444;14.476;2023-12-07T08:51:30;101989.16;;;1.74;78.63
58991;BME280;44781;53.444;14.476;2023-12-07T08:53:56;101994.35;;;1.76;78.59
58991;BME280;44781;53.444;14.476;2023-12-07T08:56:23;101996.94;;;1.77;78.50
58991;BME280;44781;53.444;14.476;2023-12-07T08:58:50;101998.34;;;1.77;78.31
58991;BME280;44781;53.444;14.476;2023-12-07T09:01:18;101999.91;;;1.77;78.17
58991;BME280;44781;53.444;14.476;2023-12-07T09:03:45;101998.70;;;1.77;78.08
58991;BME280;44781;53.444;14.476;2023-12-07T09:06:12;101998.15;;;1.78;78.12
58991;BME280;44781;53.444;14.476;2023-12-07T09:08:39;101999.15;;;1.80;78.04
58991;BME280;44781;53.444;14.476;2023-12-07T09:11:06;102002.25;;;1.82;77.93
58991;BME280;44781;53.444;14.476;2023-12-07T09:13:33;102003.42;;;1.85;78.20
58991;BME280;44781;53.444;14.476;2023-12-07T09:16:01;102006.33;;;1.87;78.14
58991;BME280;44781;53.444;14.476;2023-12-07T09:18:28;102004.38;;;1.89;78.09
58991;BME280;44781;53.444;14.476;2023-12-07T09:20:55;102007.30;;;1.91;78.08
58991;BME280;44781;53.444;14.476;2023-12-07T09:23:23;102008.70;;;1.91;78.01
58991;BME280;44781;53.444;14.476;2023-12-07T09:25:54;102006.45;;;1.90;78.09
58991;BME280;44781;53.444;14.476;2023-12-07T09:28:26;102005.18;;;1.92;77.97
58991;BME280;44781;53.444;14.476;2023-12-07T09:30:55;102003.58;;;1.93;77.98
58991;BME280;44781;53.444;14.476;2023-12-07T09:33:35;102001.45;;;1.96;77.92
58991;BME280;44781;53.444;14.476;2023-12-07T09:36:05;102000.67;;;2.00;77.86
58991;BME280;44781;53.444;14.476;2023-12-07T09:38:35;102000.42;;;2.04;77.88
58991;BME280;44781;53.444;14.476;2023-12-07T09:41:03;101998.25;;;2.08;77.94
58991;BME280;44781;53.444;14.476;2023-12-07T09:43:30;101996.77;;;2.11;77.84
58991;BME280;44781;53.444;14.476;2023-12-07T09:45:57;101995.33;;;2.14;77.71
58991;BME280;44781;53.444;14.476;2023-12-07T09:48:25;101995.24;;;2.18;77.80
58991;BME280;44781;53.444;14.476;2023-12-07T09:50:55;101993.32;;;2.19;77.83
58991;BME280;44781;53.444;14.476;2023-12-07T09:53:23;101993.63;;;2.21;77.52
58991;BME280;44781;53.444;14.476;2023-12-07T09:55:50;101997.95;;;2.22;77.40
58991;BME280;44781;53.444;14.476;2023-12-07T09:58:17;101999.30;;;2.24;77.44
58991;BME280;44781;53.444;14.476;2023-12-07T10:00:44;101996.63;;;2.27;77.35
58991;BME280;44781;53.444;14.476;2023-12-07T10:03:20;101996.74;;;2.30;77.24
58991;BME280;44781;53.444;14.476;2023-12-07T10:06:00;101992.64;;;2.33;77.30
58991;BME280;44781;53.444;14.476;2023-12-07T10:08:32;101989.09;;;2.36;77.17
58991;BME280;44781;53.444;14.476;2023-12-07T10:11:10;101988.88;;;2.38;77.12
58991;BME280;44781;53.444;14.476;2023-12-07T10:13:40;101989.23;;;2.39;77.02
58991;BME280;44781;53.444;14.476;2023-12-07T10:16:14;101990.61;;;2.39;77.06
58991;BME280;44781;53.444;14.476;2023-12-07T10:18:44;101986.61;;;2.38;77.00
58991;BME280;44781;53.444;14.476;2023-12-07T10:21:12;101991.83;;;2.39;76.96
58991;BME280;44781;53.444;14.476;2023-12-07T10:23:40;101991.63;;;2.40;76.98
58991;BME280;44781;53.444;14.476;2023-12-07T10:26:12;101990.20;;;2.42;77.01
58991;BME280;44781;53.444;14.476;2023-12-07T10:28:40;101992.05;;;2.45;76.88
58991;BME280;44781;53.444;14.476;2023-12-07T10:31:11;101994.92;;;2.49;77.07
58991;BME280;44781;53.444;14.476;2023-12-07T10:33:40;101994.95;;;2.55;78.09
58991;BME280;44781;53.444;14.476;2023-12-07T10:36:09;101996.16;;;2.63;77.88
58991;BME280;44781;53.444;14.476;2023-12-07T10:38:36;101999.68;;;2.69;77.48
58991;BME280;44781;53.444;14.476;2023-12-07T10:41:06;102001.47;;;2.75;77.28
58991;BME280;44781;53.444;14.476;2023-12-07T10:43:42;102001.35;;;2.80;77.18
58991;BME280;44781;53.444;14.476;2023-12-07T10:46:15;101999.86;;;2.84;76.95
58991;BME280;44781;53.444;14.476;2023-12-07T10:48:48;102001.04;;;2.86;76.70
58991;BME280;44781;53.444;14.476;2023-12-07T10:51:37;102001.17;;;2.87;76.62
58991;BME280;44781;53.444;14.476;2023-12-07T10:54:07;102003.66;;;2.86;76.45
58991;BME280;44781;53.444;14.476;2023-12-07T10:56:39;102005.45;;;2.84;76.37
58991;BME280;44781;53.444;14.476;2023-12-07T10:59:10;102007.56;;;2.83;76.29
58991;BME280;44781;53.444;14.476;2023-12-07T11:01:42;102007.60;;;2.81;76.29
58991;BME280;44781;53.444;14.476;2023-12-07T11:04:13;102005.35;;;2.81;76.35
58991;BME280;44781;53.444;14.476;2023-12-07T11:06:40;102005.69;;;2.82;76.37
58991;BME280;44781;53.444;14.476;2023-12-07T11:09:13;102001.16;;;2.81;76.30
58991;BME280;44781;53.444;14.476;2023-12-07T11:12:02;102001.99;;;2.83;76.35
58991;BME280;44781;53.444;14.476;2023-12-07T11:14:33;102002.30;;;2.85;76.37
58991;BME280;44781;53.444;14.476;2023-12-07T11:17:04;101992.14;;;2.86;76.46
58991;BME280;44781;53.444;14.476;2023-12-07T11:22:05;101986.02;;;2.86;76.14
58991;BME280;44781;53.444;14.476;2023-12-07T11:24:33;101984.81;;;2.86;76.16
58991;BME280;44781;53.444;14.476;2023-12-07T11:27:10;101982.40;;;2.84;76.23
58991;BME280;44781;53.444;14.476;2023-12-07T11:29:38;101984.17;;;2.83;76.29
58991;BME280;44781;53.444;14.476;2023-12-07T11:32:05;101986.45;;;2.83;76.16
58991;BME280;44781;53.444;14.476;2023-12-07T11:34:38;101986.57;;;2.85;76.15
58991;BME280;44781;53.444;14.476;2023-12-07T11:37:10;101986.00;;;2.87;76.22
58991;BME280;44781;53.444;14.476;2023-12-07T11:39:53;101982.80;;;2.89;76.28
58991;BME280;44781;53.444;14.476;2023-12-07T11:42:28;101982.21;;;2.92;76.28
58991;BME280;44781;53.444;14.476;2023-12-07T11:45:01;101981.84;;;2.93;76.27
58991;BME280;44781;53.444;14.476;2023-12-07T11:48:14;101986.72;;;2.93;76.11
58991;BME280;44781;53.444;14.476;2023-12-07T11:50:54;101984.98;;;2.93;76.18
58991;BME280;44781;53.444;14.476;2023-12-07T11:53:32;101983.27;;;2.92;76.10
58991;BME280;44781;53.444;14.476;2023-12-07T11:56:02;101990.24;;;2.92;76.12
58991;BME280;44781;53.444;14.476;2023-12-07T11:58:30;101987.77;;;2.93;76.03
58991;BME280;44781;53.444;14.476;2023-12-07T12:00:59;101986.86;;;2.94;76.07
58991;BME280;44781;53.444;14.476;2023-12-07T12:03:29;101987.69;;;2.96;76.11
58991;BME280;44781;53.444;14.476;2023-12-07T12:05:59;101984.69;;;2.98;76.10
58991;BME280;44781;53.444;14.476;2023-12-07T12:08:31;101983.42;;;3.00;76.20
58991;BME280;44781;53.444;14.476;2023-12-07T12:11:22;101976.27;;;2.99;76.06
58991;BME280;44781;53.444;14.476;2023-12-07T12:13:50;101981.55;;;2.98;76.02
58991;BME280;44781;53.444;14.476;2023-12-07T12:16:17;101981.37;;;2.98;76.04
58991;BME280;44781;53.444;14.476;2023-12-07T12:18:46;101986.79;;;2.98;76.10
58991;BME280;44781;53.444;14.476;2023-12-07T12:21:20;101981.71;;;2.98;76.11
58991;BME280;44781;53.444;14.476;2023-12-07T12:23:50;101986.73;;;2.99;76.18
58991;BME280;44781;53.444;14.476;2023-12-07T12:26:20;101995.09;;;3.01;76.14
58991;BME280;44781;53.444;14.476;2023-12-07T12:28:47;101992.25;;;3.02;76.22
58991;BME280;44781;53.444;14.476;2023-12-07T12:31:21;101993.80;;;3.03;76.07
58991;BME280;44781;53.444;14.476;2023-12-07T12:33:54;101989.09;;;3.04;76.20
58991;BME280;44781;53.444;14.476;2023-12-07T12:36:22;101980.88;;;3.04;76.18
58991;BME280;44781;53.444;14.476;2023-12-07T12:38:54;101978.46;;;3.03;76.09
58991;BME280;44781;53.444;14.476;2023-12-07T12:41:22;101978.34;;;3.01;76.11
58991;BME280;44781;53.444;14.476;2023-12-07T12:43:51;101978.55;;;2.99;76.08
58991;BME280;44781;53.444;14.476;2023-12-07T12:46:18;101977.16;;;2.99;76.14
58991;BME280;44781;53.444;14.476;2023-12-07T12:48:59;101983.79;;;2.99;76.15
58991;BME280;44781;53.444;14.476;2023-12-07T12:51:27;101985.52;;;3.00;76.28
58991;BME280;44781;53.444;14.476;2023-12-07T12:53:57;101985.66;;;3.01;76.27
58991;BME280;44781;53.444;14.476;2023-12-07T12:56:27;101986.89;;;3.01;76.22
58991;BME280;44781;53.444;14.476;2023-12-07T12:58:54;101984.08;;;3.01;76.27
58991;BME280;44781;53.444;14.476;2023-12-07T13:01:24;101983.23;;;3.00;76.33
58991;BME280;44781;53.444;14.476;2023-12-07T13:03:52;101985.88;;;2.99;76.38
58991;BME280;44781;53.444;14.476;2023-12-07T13:06:19;101988.88;;;2.98;76.41